Time;durP1;ratioP1;P1;durP2;ratioP2;P2;SDS_P1;SDS_P2;PMS_P1;PMS_P2;Temp;Humidity;BMP_temperature;BMP_pressure;BME280_temperature;BME280_humidity;BME280_pressure;Samples;Min_cycle;Max_cycle;Signal;HPM_P1;HPM_P2
2024/03/05 00:02:17;;;;;;;55.38;22.23;;;;;;;;;;5043861;28;20075;-40
2024/03/05 00:04:46;;;;;;;47.55;21.38;;;;;;;;;;5043732;28;20067;-38
2024/03/05 00:07:15;;;;;;;81.57;25.42;;;;;;;;;;5043697;28;20029;-45
2024/03/05 00:09:42;;;;;;;42.28;22.52;;;;;;;;;;5043325;28;20029;-45
2024/03/05 00:12:11;;;;;;;56.25;23.85;;;;;;;;;;5043515;28;20025;-50
2024/03/05 00:14:38;;;;;;;51.72;23.33;;;;;;;;;;5043548;28;20017;-41
2024/03/05 00:17:05;;;;;;;64.50;23.85;;;;;;;;;;5043480;28;20086;-46
2024/03/05 00:19:31;;;;;;;58.10;23.58;;;;;;;;;;5043735;28;20057;-43
2024/03/05 00:21:58;;;;;;;46.17;23.80;;;;;;;;;;5043863;28;20025;-49
2024/03/05 00:24:24;;;;;;;37.22;23.85;;;;;;;;;;5043415;28;20022;-42
2024/03/05 00:26:51;;;;;;;39.95;22.95;;;;;;;;;;5044196;28;20051;-45
2024/03/05 00:29:17;;;;;;;46.25;22.40;;;;;;;;;;5043474;28;20025;-44
2024/03/05 00:31:44;;;;;;;72.70;25.10;;;;;;;;;;5043985;28;20021;-37
2024/03/05 00:34:10;;;;;;;167.73;29.52;;;;;;;;;;5043999;28;20077;-47
2024/03/05 00:36:37;;;;;;;90.68;27.05;;;;;;;;;;5043843;28;20232;-40
2024/03/05 00:39:04;;;;;;;54.83;24.77;;;;;;;;;;5043506;28;20081;-39
2024/03/05 00:41:30;;;;;;;114.55;28.17;;;;;;;;;;5043560;28;20032;-36
2024/03/05 00:43:57;;;;;;;74.47;24.75;;;;;;;;;;5044109;28;20324;-37
2024/03/05 00:46:24;;;;;;;58.85;23.45;;;;;;;;;;5046997;28;20242;-42
2024/03/05 00:48:51;;;;;;;41.53;23.05;;;;;;;;;;5046834;28;20017;-39
2024/03/05 00:51:18;;;;;;;56.70;22.90;;;;;;;;;;5047378;28;20314;-48
2024/03/05 00:53:44;;;;;;;49.83;23.13;;;;;;;;;;5046607;28;20013;-44
2024/03/05 00:56:11;;;;;;;37.83;21.65;;;;;;;;;;5047165;28;20049;-46
2024/03/05 00:58:37;;;;;;;33.33;21.40;;;;;;;;;;5046611;28;20100;-41
2024/03/05 01:01:07;;;;;;;33.85;21.13;;;;;;;;;;5046506;28;20037;-37
2024/03/05 01:03:33;;;;;;;31.08;20.27;;;;;;;;;;5045364;28;20025;-42
2024/03/05 01:06:02;;;;;;;35.55;21.08;;;;;;;;;;5046459;28;20108;-49
2024/03/05 01:08:30;;;;;;;38.03;20.25;;;;;;;;;;5046683;28;20208;-37
2024/03/05 01:10:57;;;;;;;28.58;19.98;;;;;;;;;;5046549;28;20040;-37
2024/03/05 01:13:24;;;;;;;28.85;19.33;;;;;;;;;;5046064;28;20218;-43
2024/03/05 01:15:50;;;;;;;29.98;20.67;;;;;;;;;;5046543;28;20048;-45
2024/03/05 01:18:17;;;;;;;40.03;20.17;;;;;;;;;;5046534;28;20013;-41
2024/03/05 01:20:43;;;;;;;31.35;19.67;;;;;;;;;;5046546;28;20049;-40
2024/03/05 01:23:13;;;;;;;25.92;18.45;;;;;;;;;;5046200;28;20162;-37
2024/03/05 01:25:40;;;;;;;28.85;19.42;;;;;;;;;;5046137;28;20037;-47
2024/03/05 01:28:07;;;;;;;26.23;18.85;;;;;;;;;;5046260;28;20024;-38
2024/03/05 01:30:34;;;;;;;35.53;18.88;;;;;;;;;;5046833;28;20071;-40
2024/03/05 01:33:05;;;;;;;24.08;19.17;;;;;;;;;;5046736;28;20029;-38
2024/03/05 01:35:32;;;;;;;33.28;19.15;;;;;;;;;;5076906;28;20041;-40
2024/03/05 01:37:58;;;;;;;28.83;19.65;;;;;;;;;;5065945;28;20021;-41
2024/03/05 01:40:25;;;;;;;25.83;17.48;;;;;;;;;;5065808;28;20029;-38
2024/03/05 01:42:51;;;;;;;26.75;18.88;;;;;;;;;;5069744;28;20087;-53
2024/03/05 01:45:18;;;;;;;24.83;18.02;;;;;;;;;;5056910;28;20056;-44
2024/03/05 01:47:46;;;;;;;160.48;29.63;;;;;;;;;;5048230;28;20048;-49
2024/03/05 01:50:13;;;;;;;33.00;18.95;;;;;;;;;;5053812;28;20096;-51
2024/03/05 01:52:39;;;;;;;23.98;19.02;;;;;;;;;;5047798;28;20022;-39
2024/03/05 01:55:10;;;;;;;25.58;18.25;;;;;;;;;;5054348;28;20085;-35
2024/03/05 01:57:37;;;;;;;25.55;18.58;;;;;;;;;;5045642;28;20044;-37
2024/03/05 02:00:04;;;;;;;25.85;18.15;;;;;;;;;;5049043;28;20321;-39
2024/03/05 02:02:31;;;;;;;30.05;17.83;;;;;;;;;;5054109;28;20052;-35
2024/03/05 02:04:57;;;;;;;40.47;19.20;;;;;;;;;;5052442;28;20025;-50
2024/03/05 02:07:24;;;;;;;26.48;18.80;;;;;;;;;;5056774;28;20122;-44
2024/03/05 02:09:54;;;;;;;75.93;22.35;;;;;;;;;;5045067;28;20260;-50
2024/03/05 02:12:20;;;;;;;29.00;18.33;;;;;;;;;;5045108;28;20025;-41
2024/03/05 02:14:47;;;;;;;26.77;18.50;;;;;;;;;;5053488;28;20033;-39
2024/03/05 02:17:13;;;;;;;23.77;18.27;;;;;;;;;;5047502;28;20081;-36
2024/03/05 02:19:47;;;;;;;28.60;19.33;;;;;;;;;;5044949;28;20139;-36
2024/03/05 02:22:14;;;;;;;37.33;19.17;;;;;;;;;;5044890;28;20051;-41
2024/03/05 02:24:41;;;;;;;29.83;19.05;;;;;;;;;;5043745;28;20073;-37
2024/03/05 02:27:07;;;;;;;23.63;18.83;;;;;;;;;;5044940;28;20030;-35
2024/03/05 02:29:38;;;;;;;26.40;18.00;;;;;;;;;;5044951;28;20206;-38
2024/03/05 02:32:09;;;;;;;30.73;20.10;;;;;;;;;;5044871;28;20033;-44
2024/03/05 02:34:35;;;;;;;24.15;17.90;;;;;;;;;;5044822;28;20116;-42
2024/03/05 02:37:03;;;;;;;21.83;18.48;;;;;;;;;;5044644;28;20045;-46
2024/03/05 02:39:30;;;;;;;31.40;18.67;;;;;;;;;;5047963;28;20021;-45
2024/03/05 02:41:58;;;;;;;25.15;18.15;;;;;;;;;;5051987;28;20322;-48
2024/03/05 02:44:26;;;;;;;21.17;17.95;;;;;;;;;;5047949;28;20024;-41
2024/03/05 02:46:53;;;;;;;25.63;18.17;;;;;;;;;;5053215;28;20404;-43
2024/03/05 02:49:19;;;;;;;19.65;17.75;;;;;;;;;;5047646;28;20061;-39
2024/03/05 02:51:51;;;;;;;21.48;17.17;;;;;;;;;;5054510;28;20244;-51
2024/03/05 02:54:17;;;;;;;23.35;17.52;;;;;;;;;;5056976;28;20017;-48
2024/03/05 02:56:44;;;;;;;18.98;17.02;;;;;;;;;;5044890;28;20302;-47
2024/03/05 02:59:11;;;;;;;22.20;17.75;;;;;;;;;;5044276;28;20033;-45
2024/03/05 03:01:37;;;;;;;19.58;17.63;;;;;;;;;;5044859;28;20033;-49
2024/03/05 03:04:05;;;;;;;23.15;17.65;;;;;;;;;;5044327;28;20031;-47
2024/03/05 03:06:32;;;;;;;19.52;17.40;;;;;;;;;;5044086;28;20041;-38
2024/03/05 03:08:59;;;;;;;23.15;18.05;;;;;;;;;;5044167;28;20084;-34
2024/03/05 03:11:25;;;;;;;25.92;17.95;;;;;;;;;;5044885;28;20305;-45
2024/03/05 03:13:52;;;;;;;43.35;37.17;;;;;;;;;;5053569;28;20048;-42
2024/03/05 03:16:18;;;;;;;39.67;34.53;;;;;;;;;;5064284;28;20086;-41
2024/03/05 03:18:45;;;;;;;57.33;46.40;;;;;;;;;;5064139;28;20039;-35
2024/03/05 03:21:12;;;;;;;67.00;53.80;;;;;;;;;;5064286;28;20092;-35
2024/03/05 03:23:38;;;;;;;47.75;42.00;;;;;;;;;;5063949;28;20029;-39
2024/03/05 03:26:06;;;;;;;42.30;37.67;;;;;;;;;;5063460;28;20029;-35
2024/03/05 03:28:33;;;;;;;35.25;31.70;;;;;;;;;;5053611;28;20036;-38
2024/03/05 03:31:00;;;;;;;34.58;30.88;;;;;;;;;;5047709;28;20131;-41
2024/03/05 03:33:27;;;;;;;36.17;30.80;;;;;;;;;;5043886;28;20222;-41
2024/03/05 03:35:55;;;;;;;31.70;28.30;;;;;;;;;;5044197;28;20037;-38
2024/03/05 03:38:21;;;;;;;27.40;24.52;;;;;;;;;;5043670;28;20388;-37
2024/03/05 03:40:48;;;;;;;25.27;22.25;;;;;;;;;;5044237;28;20056;-42
2024/03/05 03:43:15;;;;;;;31.65;21.00;;;;;;;;;;5045816;28;20017;-38
2024/03/05 03:45:42;;;;;;;24.70;21.55;;;;;;;;;;5052184;28;20313;-37
2024/03/05 03:48:09;;;;;;;23.10;19.88;;;;;;;;;;5043902;28;20071;-38
2024/03/05 03:50:37;;;;;;;22.95;20.55;;;;;;;;;;5043984;28;20021;-38
2024/03/05 03:53:07;;;;;;;21.42;19.25;;;;;;;;;;5043600;28;20055;-35
2024/03/05 03:55:33;;;;;;;21.50;18.85;;;;;;;;;;5044940;28;20035;-51
2024/03/05 03:58:00;;;;;;;21.13;18.50;;;;;;;;;;5051129;28;20049;-49
2024/03/05 04:00:26;;;;;;;20.85;18.40;;;;;;;;;;5045956;28;20026;-42
2024/03/05 04:02:53;;;;;;;21.15;19.05;;;;;;;;;;5043696;28;20025;-49
2024/03/05 04:05:20;;;;;;;20.67;18.60;;;;;;;;;;5043935;28;20206;-41
2024/03/05 04:07:46;;;;;;;26.63;18.65;;;;;;;;;;5043476;28;20022;-42
2024/03/05 04:10:13;;;;;;;23.40;18.48;;;;;;;;;;5043651;28;20310;-41
2024/03/05 04:12:40;;;;;;;26.42;18.67;;;;;;;;;;5043501;28;20034;-39
2024/03/05 04:15:08;;;;;;;24.55;18.35;;;;;;;;;;5043369;28;20022;-44
2024/03/05 04:17:38;;;;;;;58.25;20.63;;;;;;;;;;5043490;28;20025;-41
2024/03/05 04:20:08;;;;;;;38.90;19.15;;;;;;;;;;5046107;28;20080;-39
2024/03/05 04:22:35;;;;;;;23.20;18.67;;;;;;;;;;5047544;28;20185;-44
2024/03/05 04:25:03;;;;;;;25.27;19.25;;;;;;;;;;5047351;28;20205;-40
2024/03/05 04:27:30;;;;;;;25.70;19.05;;;;;;;;;;5047215;28;20051;-45
2024/03/05 04:29:57;;;;;;;26.65;19.00;;;;;;;;;;5047337;28;20048;-41
2024/03/05 04:32:27;;;;;;;23.13;18.85;;;;;;;;;;5047296;28;20044;-47
2024/03/05 04:35:06;;;;;;;22.17;19.75;;;;;;;;;;5047173;28;20077;-44
2024/03/05 04:37:33;;;;;;;23.38;19.27;;;;;;;;;;5055877;28;20033;-47
2024/03/05 04:39:59;;;;;;;21.52;19.25;;;;;;;;;;5047330;28;20045;-49
2024/03/05 04:42:26;;;;;;;23.70;18.85;;;;;;;;;;5051401;28;20031;-43
2024/03/05 04:44:53;;;;;;;28.08;19.75;;;;;;;;;;5055156;28;20096;-45
2024/03/05 04:47:21;;;;;;;22.65;19.02;;;;;;;;;;5061744;28;20024;-40
2024/03/05 04:49:47;;;;;;;24.45;19.42;;;;;;;;;;5059099;28;20022;-41
2024/03/05 04:52:14;;;;;;;24.30;19.38;;;;;;;;;;5055319;28;20027;-39
2024/03/05 04:54:41;;;;;;;22.20;19.83;;;;;;;;;;5057012;28;20044;-42
2024/03/05 04:57:08;;;;;;;22.52;20.30;;;;;;;;;;5056571;28;20351;-38
2024/03/05 04:59:34;;;;;;;22.65;19.85;;;;;;;;;;5055071;28;20024;-36
2024/03/05 05:02:01;;;;;;;21.95;19.55;;;;;;;;;;5056853;28;20020;-36
2024/03/05 05:04:28;;;;;;;21.52;19.40;;;;;;;;;;5056164;28;20068;-40
2024/03/05 05:06:54;;;;;;;22.00;19.70;;;;;;;;;;5055526;28;20101;-41
2024/03/05 05:09:22;;;;;;;22.58;19.02;;;;;;;;;;5060969;28;20023;-38
2024/03/05 05:11:49;;;;;;;21.50;19.10;;;;;;;;;;5060516;28;20032;-38
2024/03/05 05:14:16;;;;;;;21.70;19.65;;;;;;;;;;5057131;28;20086;-38
2024/03/05 05:16:46;;;;;;;26.00;19.63;;;;;;;;;;5055980;28;20044;-46
2024/03/05 05:19:15;;;;;;;24.35;19.27;;;;;;;;;;5054627;28;20294;-41
2024/03/05 05:21:47;;;;;;;21.63;19.08;;;;;;;;;;5057912;28;20084;-39
2024/03/05 05:24:14;;;;;;;22.02;19.83;;;;;;;;;;5054845;28;20025;-42
2024/03/05 05:26:42;;;;;;;22.67;20.25;;;;;;;;;;5056915;28;20064;-44
2024/03/05 05:29:09;;;;;;;21.58;19.40;;;;;;;;;;5056090;28;20247;-42
2024/03/05 05:31:36;;;;;;;21.58;19.45;;;;;;;;;;5054586;28;20124;-40
2024/03/05 05:34:03;;;;;;;21.98;19.70;;;;;;;;;;5055841;28;20074;-39
2024/03/05 05:36:30;;;;;;;24.83;20.58;;;;;;;;;;5056536;28;20353;-36
2024/03/05 05:38:59;;;;;;;25.52;20.15;;;;;;;;;;5054526;28;20039;-40
2024/03/05 05:41:25;;;;;;;22.75;20.52;;;;;;;;;;5055812;28;20020;-39
2024/03/05 05:43:52;;;;;;;22.23;20.00;;;;;;;;;;5056208;28;20017;-42
2024/03/05 05:46:22;;;;;;;22.25;19.95;;;;;;;;;;5054147;28;20121;-39
2024/03/05 05:48:49;;;;;;;26.15;21.33;;;;;;;;;;5054741;28;20076;-38
2024/03/05 05:51:18;;;;;;;22.77;20.48;;;;;;;;;;5056441;28;20028;-36
2024/03/05 05:53:45;;;;;;;22.95;20.70;;;;;;;;;;5053945;28;20021;-40
2024/03/05 05:56:11;;;;;;;24.35;21.85;;;;;;;;;;5062021;28;20028;-39
2024/03/05 05:58:38;;;;;;;22.83;20.60;;;;;;;;;;5058395;28;20043;-38
2024/03/05 06:01:09;;;;;;;23.67;21.15;;;;;;;;;;5045798;28;20032;-44
2024/03/05 06:03:39;;;;;;;23.10;20.67;;;;;;;;;;5061303;28;20029;-40
2024/03/05 06:06:06;;;;;;;23.35;21.17;;;;;;;;;;5065749;28;20247;-38
2024/03/05 06:08:33;;;;;;;23.80;21.40;;;;;;;;;;5062416;28;20285;-42
2024/03/05 06:11:00;;;;;;;23.52;21.38;;;;;;;;;;5065395;28;20297;-38
2024/03/05 06:13:26;;;;;;;22.83;20.73;;;;;;;;;;5065183;28;20328;-40
2024/03/05 06:15:53;;;;;;;24.65;22.33;;;;;;;;;;5065456;28;20321;-41
2024/03/05 06:18:19;;;;;;;23.85;21.65;;;;;;;;;;5064968;28;20295;-40
2024/03/05 06:20:48;;;;;;;23.33;21.20;;;;;;;;;;5065262;28;20302;-37
2024/03/05 06:23:14;;;;;;;24.23;21.85;;;;;;;;;;5064899;28;20024;-39
2024/03/05 06:25:41;;;;;;;23.88;21.45;;;;;;;;;;5065033;28;20061;-39
2024/03/05 06:28:12;;;;;;;24.30;21.98;;;;;;;;;;5065009;28;20083;-38
2024/03/05 06:30:43;;;;;;;23.52;21.30;;;;;;;;;;5051976;28;20075;-38
2024/03/05 06:33:10;;;;;;;23.75;21.58;;;;;;;;;;5064779;28;20021;-39
2024/03/05 06:35:37;;;;;;;24.05;21.65;;;;;;;;;;5065033;28;20054;-39
2024/03/05 06:38:07;;;;;;;24.30;21.67;;;;;;;;;;5064496;28;20021;-47
2024/03/05 06:40:36;;;;;;;23.55;21.25;;;;;;;;;;5064974;28;20088;-40
2024/03/05 06:43:03;;;;;;;24.45;21.95;;;;;;;;;;5064043;28;20078;-46
2024/03/05 06:45:31;;;;;;;25.98;21.95;;;;;;;;;;5064567;28;20359;-39
2024/03/05 06:48:01;;;;;;;24.35;21.67;;;;;;;;;;5064886;28;20051;-39
2024/03/05 06:50:36;;;;;;;24.50;21.77;;;;;;;;;;5064292;28;20032;-43
2024/03/05 06:58:38;;;;;;;22.83;20.48;;;;;;;;;;5064379;28;20024;-44
2024/03/05 07:01:07;;;;;;;22.52;20.33;;;;;;;;;;5064734;28;20025;-45
2024/03/05 07:03:34;;;;;;;23.50;21.33;;;;;;;;;;5064619;28;20024;-45
2024/03/05 07:06:09;;;;;;;22.52;20.10;;;;;;;;;;5064452;28;20032;-44
2024/03/05 07:08:38;;;;;;;22.27;20.10;;;;;;;;;;5064004;28;20055;-44
2024/03/05 07:11:08;;;;;;;22.23;20.02;;;;;;;;;;5064369;28;20040;-43
2024/03/05 07:13:36;;;;;;;22.13;20.02;;;;;;;;;;5064135;28;20021;-44
2024/03/05 07:16:04;;;;;;;21.92;19.88;;;;;;;;;;5064215;28;20295;-44
2024/03/05 07:18:30;;;;;;;20.80;18.88;;;;;;;;;;5064124;28;20021;-41
2024/03/05 07:20:57;;;;;;;21.45;19.35;;;;;;;;;;5064357;28;20056;-37
2024/03/05 07:23:23;;;;;;;20.60;18.67;;;;;;;;;;5063908;28;20025;-42
2024/03/05 07:25:50;;;;;;;21.17;18.95;;;;;;;;;;5064219;28;20033;-42
2024/03/05 07:28:16;;;;;;;21.13;18.65;;;;;;;;;;5063992;28;20194;-44
2024/03/05 07:30:43;;;;;;;21.00;19.08;;;;;;;;;;5063889;28;20321;-37
2024/03/05 07:33:10;;;;;;;21.33;19.13;;;;;;;;;;5063898;28;20025;-40
2024/03/05 07:35:37;;;;;;;21.45;19.42;;;;;;;;;;5063815;28;20029;-45
2024/03/05 07:38:03;;;;;;;20.92;18.80;;;;;;;;;;5063537;28;20012;-41
2024/03/05 07:40:30;;;;;;;20.90;18.85;;;;;;;;;;5064034;28;20025;-38
2024/03/05 07:42:57;;;;;;;21.30;19.38;;;;;;;;;;5063637;28;20021;-40
2024/03/05 07:45:24;;;;;;;20.95;18.90;;;;;;;;;;5063371;28;20049;-44
2024/03/05 07:47:51;;;;;;;20.95;18.85;;;;;;;;;;5063487;28;20025;-41
2024/03/05 07:50:18;;;;;;;21.23;19.17;;;;;;;;;;5062345;28;20099;-40
2024/03/05 07:52:50;;;;;;;20.38;18.48;;;;;;;;;;5064576;28;20025;-40
2024/03/05 07:55:21;;;;;;;21.23;19.27;;;;;;;;;;5070307;28;20347;-45
2024/03/05 07:57:53;;;;;;;21.98;19.02;;;;;;;;;;5070181;28;20085;-46
2024/03/05 08:00:24;;;;;;;20.80;18.80;;;;;;;;;;5070199;28;20055;-46
2024/03/05 08:02:53;;;;;;;20.65;18.55;;;;;;;;;;5070265;28;20017;-40
2024/03/05 08:05:23;;;;;;;21.02;18.83;;;;;;;;;;5069759;28;20029;-45
2024/03/05 08:07:50;;;;;;;21.85;19.35;;;;;;;;;;5068572;28;20024;-45
2024/03/05 08:10:17;;;;;;;21.25;19.15;;;;;;;;;;5068336;28;20035;-41
2024/03/05 08:12:48;;;;;;;22.33;20.08;;;;;;;;;;5068234;28;20070;-41
2024/03/05 08:15:15;;;;;;;21.27;19.25;;;;;;;;;;5068519;28;20025;-42
2024/03/05 08:17:45;;;;;;;20.38;18.45;;;;;;;;;;5068649;28;20205;-46
2024/03/05 08:20:30;;;;;;;21.15;19.15;;;;;;;;;;5068365;28;20025;-37
2024/03/05 08:22:57;;;;;;;21.85;19.63;;;;;;;;;;5070985;28;20136;-46
2024/03/05 08:25:24;;;;;;;20.92;18.95;;;;;;;;;;5070601;28;20317;-39
2024/03/05 08:27:57;;;;;;;25.45;19.52;;;;;;;;;;5070876;28;20266;-38
2024/03/05 08:30:25;;;;;;;22.95;19.40;;;;;;;;;;5070749;28;20044;-48
2024/03/05 08:32:53;;;;;;;21.17;18.88;;;;;;;;;;5070458;28;20054;-41
2024/03/05 08:35:22;;;;;;;22.63;18.92;;;;;;;;;;5070928;28;20251;-41
2024/03/05 08:37:50;;;;;;;21.00;18.73;;;;;;;;;;5070670;28;20043;-44
2024/03/05 08:40:20;;;;;;;20.25;18.42;;;;;;;;;;5070578;28;20043;-42
2024/03/05 08:42:48;;;;;;;21.13;18.63;;;;;;;;;;5070556;28;20043;-37
2024/03/05 08:45:15;;;;;;;19.80;17.80;;;;;;;;;;5070584;28;20049;-39
2024/03/05 08:47:46;;;;;;;21.05;18.75;;;;;;;;;;5062717;28;20221;-44
2024/03/05 08:50:13;;;;;;;19.33;17.35;;;;;;;;;;5055929;28;20029;-37
2024/03/05 08:52:43;;;;;;;19.85;17.80;;;;;;;;;;5050040;28;20228;-36
2024/03/05 08:55:10;;;;;;;21.20;17.92;;;;;;;;;;5049712;28;20025;-40
2024/03/05 08:57:40;;;;;;;19.17;17.17;;;;;;;;;;5049721;28;20022;-40
2024/03/05 09:00:07;;;;;;;19.58;17.55;;;;;;;;;;5049720;28;20025;-39
2024/03/05 09:02:35;;;;;;;19.55;17.50;;;;;;;;;;5049642;28;20093;-38
2024/03/05 09:05:04;;;;;;;19.25;17.30;;;;;;;;;;5047439;28;20033;-40
2024/03/05 09:07:31;;;;;;;18.35;16.65;;;;;;;;;;5046397;28;20021;-39
2024/03/05 09:09:58;;;;;;;18.33;16.42;;;;;;;;;;5046406;28;20082;-39
2024/03/05 09:12:24;;;;;;;19.05;16.85;;;;;;;;;;5046605;28;20244;-37
2024/03/05 09:14:51;;;;;;;18.92;16.83;;;;;;;;;;5046357;28;20046;-43
2024/03/05 09:17:18;;;;;;;17.58;15.88;;;;;;;;;;5046497;28;20075;-39
2024/03/05 09:19:44;;;;;;;17.63;15.75;;;;;;;;;;5046182;28;20024;-35
2024/03/05 09:22:11;;;;;;;17.58;15.88;;;;;;;;;;5046307;28;20022;-43
2024/03/05 09:24:38;;;;;;;17.73;16.00;;;;;;;;;;5046046;28;20242;-40
2024/03/05 09:27:05;;;;;;;17.63;15.90;;;;;;;;;;5046269;28;20021;-42
2024/03/05 09:29:32;;;;;;;18.05;16.27;;;;;;;;;;5045898;28;20210;-37
2024/03/05 09:32:00;;;;;;;18.00;15.93;;;;;;;;;;5045937;28;20040;-45
2024/03/05 09:34:27;;;;;;;18.00;16.10;;;;;;;;;;5046059;28;20245;-42
2024/03/05 09:36:56;;;;;;;17.67;15.95;;;;;;;;;;5046456;28;20022;-38
2024/03/05 09:39:23;;;;;;;16.95;15.27;;;;;;;;;;5046211;28;20021;-37
2024/03/05 09:41:50;;;;;;;19.02;15.80;;;;;;;;;;5046352;28;20053;-37
2024/03/05 09:44:18;;;;;;;19.05;15.35;;;;;;;;;;5045813;28;20055;-42
2024/03/05 09:46:48;;;;;;;18.67;15.52;;;;;;;;;;5045612;28;20064;-39
2024/03/05 09:49:20;;;;;;;17.88;16.08;;;;;;;;;;5045767;28;20036;-36
2024/03/05 09:51:48;;;;;;;17.58;15.77;;;;;;;;;;5046016;28;20335;-40
2024/03/05 09:54:14;;;;;;;17.10;15.40;;;;;;;;;;5045621;28;20064;-36
2024/03/05 09:56:42;;;;;;;17.05;15.25;;;;;;;;;;5046049;28;20315;-38
2024/03/05 09:59:12;;;;;;;18.35;15.98;;;;;;;;;;5045394;28;20021;-38
2024/03/05 10:01:41;;;;;;;18.27;15.70;;;;;;;;;;5045855;28;20026;-37
2024/03/05 10:04:11;;;;;;;17.00;15.25;;;;;;;;;;5045439;28;20370;-39
2024/03/05 10:06:38;;;;;;;17.95;15.85;;;;;;;;;;5045277;28;20060;-36
2024/03/05 10:09:08;;;;;;;17.55;15.48;;;;;;;;;;5045278;28;20040;-35
2024/03/05 10:11:36;;;;;;;22.10;15.90;;;;;;;;;;5045875;28;20208;-38
2024/03/05 10:14:05;;;;;;;17.35;15.50;;;;;;;;;;5045570;28;20028;-35
2024/03/05 10:16:34;;;;;;;22.17;15.57;;;;;;;;;;5044574;28;20056;-36
2024/03/05 10:19:12;;;;;;;22.85;16.05;;;;;;;;;;5045177;28;20024;-36
2024/03/05 10:21:38;;;;;;;18.52;15.52;;;;;;;;;;5045536;28;20029;-37
2024/03/05 10:24:05;;;;;;;20.95;15.30;;;;;;;;;;5045070;28;20032;-36
2024/03/05 10:26:32;;;;;;;23.05;15.80;;;;;;;;;;5045205;28;20085;-37
2024/03/05 10:29:00;;;;;;;23.02;15.93;;;;;;;;;;5044899;28;20131;-40
2024/03/05 10:31:30;;;;;;;29.42;16.08;;;;;;;;;;5045226;28;20037;-36
2024/03/05 10:33:58;;;;;;;22.80;15.27;;;;;;;;;;5045050;28;20025;-36
2024/03/05 10:36:25;;;;;;;21.48;15.48;;;;;;;;;;5045294;28;20091;-39
2024/03/05 10:38:53;;;;;;;25.17;15.82;;;;;;;;;;5044942;28;20273;-40
2024/03/05 10:41:29;;;;;;;28.60;15.45;;;;;;;;;;5044986;28;20071;-37
2024/03/05 10:43:57;;;;;;;29.35;16.38;;;;;;;;;;5044993;28;20210;-36
2024/03/05 10:46:24;;;;;;;34.08;17.52;;;;;;;;;;5044726;28;20056;-38
2024/03/05 10:48:52;;;;;;;39.55;18.58;;;;;;;;;;5044629;28;20098;-39
2024/03/05 10:51:26;;;;;;;41.08;19.40;;;;;;;;;;5044427;28;20033;-39
2024/03/05 10:53:53;;;;;;;45.42;20.85;;;;;;;;;;5044442;28;20264;-40
2024/03/05 10:56:19;;;;;;;50.03;20.40;;;;;;;;;;5044908;28;20022;-38
2024/03/05 11:01:21;;;;;;;50.58;20.77;;;;;;;;;;5064533;28;20021;-40
2024/03/05 11:03:48;;;;;;;54.35;19.42;;;;;;;;;;5064404;28;20028;-38
2024/03/05 11:06:17;;;;;;;45.22;20.90;;;;;;;;;;5065082;28;20047;-39
2024/03/05 11:08:45;;;;;;;68.57;22.40;;;;;;;;;;5064104;28;20029;-42
2024/03/05 11:11:30;;;;;;;50.05;21.55;;;;;;;;;;5064319;28;20048;-40
2024/03/05 11:13:58;;;;;;;44.53;20.48;;;;;;;;;;5064114;28;20044;-47
2024/03/05 11:16:26;;;;;;;45.97;20.73;;;;;;;;;;5064474;28;20201;-43
2024/03/05 11:18:52;;;;;;;47.78;22.00;;;;;;;;;;5064030;28;20336;-37
2024/03/05 11:21:23;;;;;;;45.03;21.92;;;;;;;;;;5064664;28;20324;-40
2024/03/05 11:23:52;;;;;;;45.70;22.25;;;;;;;;;;5064270;28;20024;-38
2024/03/05 11:26:20;;;;;;;61.40;23.13;;;;;;;;;;5064283;28;20284;-38
2024/03/05 11:28:51;;;;;;;53.55;22.67;;;;;;;;;;5062909;28;20059;-38
2024/03/05 11:31:19;;;;;;;47.53;22.85;;;;;;;;;;5044300;28;20033;-40
2024/03/05 11:33:46;;;;;;;58.70;23.35;;;;;;;;;;5043960;28;20069;-40
2024/03/05 11:36:22;;;;;;;52.65;23.35;;;;;;;;;;5048652;28;20048;-39
2024/03/05 11:39:03;;;;;;;55.95;23.05;;;;;;;;;;5063922;28;20360;-45
2024/03/05 11:41:31;;;;;;;47.03;23.80;;;;;;;;;;5064528;28;20218;-50
2024/03/05 11:43:58;;;;;;;54.55;24.15;;;;;;;;;;5063664;28;20274;-41
2024/03/05 11:46:43;;;;;;;65.05;24.35;;;;;;;;;;5063674;28;20075;-38
2024/03/05 11:49:10;;;;;;;51.15;24.50;;;;;;;;;;5063602;28;20013;-40
2024/03/05 11:51:38;;;;;;;52.58;23.42;;;;;;;;;;5064186;28;20020;-48
2024/03/05 11:54:05;;;;;;;39.10;22.98;;;;;;;;;;5063439;28;20080;-45
2024/03/05 11:56:31;;;;;;;61.88;27.20;;;;;;;;;;5063990;28;20380;-52
2024/03/05 11:58:58;;;;;;;56.05;25.45;;;;;;;;;;5063555;28;20021;-44
2024/03/05 12:01:25;;;;;;;51.47;23.52;;;;;;;;;;5063947;28;20119;-48
2024/03/05 12:04:03;;;;;;;140.13;28.98;;;;;;;;;;5063541;28;20081;-44
2024/03/05 12:06:30;;;;;;;314.70;40.22;;;;;;;;;;5063758;28;20036;-41
2024/03/05 12:09:09;;;;;;;211.57;33.83;;;;;;;;;;5063794;28;20265;-47
2024/03/05 12:11:36;;;;;;;183.80;30.55;;;;;;;;;;5064051;28;20028;-35
2024/03/05 12:14:09;;;;;;;129.95;26.15;;;;;;;;;;5063307;28;20072;-40
2024/03/05 12:16:36;;;;;;;109.38;26.27;;;;;;;;;;5064074;28;20107;-44
2024/03/05 12:19:06;;;;;;;114.38;28.13;;;;;;;;;;5063587;28;20036;-46
2024/03/05 12:21:36;;;;;;;166.00;28.90;;;;;;;;;;5063809;28;20036;-43
2024/03/05 12:24:03;;;;;;;764.00;83.85;;;;;;;;;;5063521;28;20027;-45
2024/03/05 12:26:30;;;;;;;434.95;51.50;;;;;;;;;;5061275;28;20036;-37
2024/03/05 12:28:56;;;;;;;183.85;32.70;;;;;;;;;;5062460;28;20048;-49
2024/03/05 12:31:23;;;;;;;169.13;31.30;;;;;;;;;;5054570;28;20025;-41
2024/03/05 12:33:49;;;;;;;175.07;33.55;;;;;;;;;;5043350;28;20052;-41
2024/03/05 12:36:16;;;;;;;146.82;31.83;;;;;;;;;;5044183;28;20013;-47
2024/03/05 12:38:43;;;;;;;121.45;28.23;;;;;;;;;;5043766;28;20289;-42
2024/03/05 12:41:10;;;;;;;97.93;26.67;;;;;;;;;;5046189;28;20084;-40
2024/03/05 12:43:36;;;;;;;95.32;27.13;;;;;;;;;;5047165;28;20059;-46
2024/03/05 12:46:03;;;;;;;92.35;24.42;;;;;;;;;;5046910;28;20061;-46
2024/03/05 12:48:34;;;;;;;90.85;25.17;;;;;;;;;;5047328;28;20048;-39
2024/03/05 12:51:03;;;;;;;92.97;24.60;;;;;;;;;;5047383;28;20041;-38
2024/03/05 12:53:30;;;;;;;94.93;25.52;;;;;;;;;;5047022;28;20171;-41
2024/03/05 12:56:01;;;;;;;82.53;23.90;;;;;;;;;;5047043;28;20312;-46
2024/03/05 12:58:27;;;;;;;70.50;22.30;;;;;;;;;;5046868;28;20022;-40
2024/03/05 13:00:55;;;;;;;75.63;22.80;;;;;;;;;;5047016;28;20093;-41
2024/03/05 13:03:22;;;;;;;53.53;21.30;;;;;;;;;;5046661;28;20340;-38
2024/03/05 13:05:48;;;;;;;50.75;20.92;;;;;;;;;;5047319;28;20029;-45
2024/03/05 13:08:15;;;;;;;59.72;20.92;;;;;;;;;;5065166;28;20021;-38
2024/03/05 13:10:42;;;;;;;49.88;19.10;;;;;;;;;;5066527;28;20096;-38
2024/03/05 13:13:09;;;;;;;46.50;19.75;;;;;;;;;;5067192;28;20013;-48
2024/03/05 13:15:37;;;;;;;50.42;20.88;;;;;;;;;;5066899;28;20025;-37
2024/03/05 13:18:05;;;;;;;51.90;20.15;;;;;;;;;;5066509;28;20017;-39
2024/03/05 13:20:33;;;;;;;44.17;19.95;;;;;;;;;;5066308;28;20431;-38
2024/03/05 13:22:59;;;;;;;43.95;20.02;;;;;;;;;;5066318;28;20049;-38
2024/03/05 13:25:28;;;;;;;40.42;20.27;;;;;;;;;;5066686;28;20071;-42
2024/03/05 13:27:55;;;;;;;36.35;20.27;;;;;;;;;;5066502;28;20313;-39
2024/03/05 13:30:22;;;;;;;43.25;20.10;;;;;;;;;;5066599;28;20205;-45
2024/03/05 13:32:49;;;;;;;49.53;21.52;;;;;;;;;;5066301;28;20321;-41
2024/03/05 13:35:16;;;;;;;39.03;20.05;;;;;;;;;;5066651;28;20028;-39
2024/03/05 13:37:43;;;;;;;31.05;19.65;;;;;;;;;;5066760;28;20020;-37
2024/03/05 13:40:11;;;;;;;36.03;19.55;;;;;;;;;;5066576;28;20033;-43
2024/03/05 13:42:38;;;;;;;51.17;20.10;;;;;;;;;;5065865;28;20025;-39
2024/03/05 13:45:12;;;;;;;65.15;21.65;;;;;;;;;;5065762;28;20066;-39
2024/03/05 13:47:39;;;;;;;35.28;20.45;;;;;;;;;;5065717;28;20025;-43
2024/03/05 13:50:10;;;;;;;47.20;21.45;;;;;;;;;;5066294;28;20052;-38
2024/03/05 13:52:41;;;;;;;43.35;21.48;;;;;;;;;;5065375;28;20012;-39
2024/03/05 13:55:08;;;;;;;33.65;20.50;;;;;;;;;;5066140;28;20029;-37
2024/03/05 13:57:35;;;;;;;31.65;21.85;;;;;;;;;;5066041;28;20043;-38
2024/03/05 14:00:02;;;;;;;33.28;21.60;;;;;;;;;;5066018;28;20092;-38
2024/03/05 14:02:29;;;;;;;32.88;23.15;;;;;;;;;;5065702;28;20053;-40
2024/03/05 14:04:56;;;;;;;29.15;23.27;;;;;;;;;;5065620;28;20096;-37
2024/03/05 14:07:22;;;;;;;31.20;23.05;;;;;;;;;;5065430;28;20313;-36
2024/03/05 14:09:49;;;;;;;36.30;22.92;;;;;;;;;;5065298;28;20199;-44
2024/03/05 14:12:16;;;;;;;26.48;22.85;;;;;;;;;;5065748;28;20023;-47
2024/03/05 14:14:43;;;;;;;25.25;21.48;;;;;;;;;;5059578;28;20018;-37
2024/03/05 14:17:10;;;;;;;30.95;22.55;;;;;;;;;;5045410;28;20092;-41
2024/03/05 14:19:40;;;;;;;28.38;21.95;;;;;;;;;;5057032;28;20190;-41
2024/03/05 14:22:06;;;;;;;25.88;21.00;;;;;;;;;;5059599;28;20205;-38
2024/03/05 14:24:33;;;;;;;30.33;22.67;;;;;;;;;;5045218;28;20201;-39
2024/03/05 14:27:00;;;;;;;24.35;21.75;;;;;;;;;;5045177;28;20028;-42
2024/03/05 14:29:29;;;;;;;28.98;21.83;;;;;;;;;;5045014;28;20017;-40